sensor_id;sensor_type;location;lat;lon;timestamp;temperature;humidity
6788;DHT22;3431;47.966;10.268;2024-02-23T00:00:16;5.60;99.90
6788;DHT22;3431;47.966;10.268;2024-02-23T00:01:01;5.60;99.90
6788;DHT22;3431;47.966;10.268;2024-02-23T00:01:23;5.80;99.90
6788;DHT22;3431;47.966;10.268;2024-02-23T00:01:46;5.60;99.90
6788;DHT22;3431;47.966;10.268;2024-02-23T00:02:08;5.70;99.90
6788;DHT22;3431;47.966;10.268;2024-02-23T00:02:30;5.50;99.90
6788;DHT22;3431;47.966;10.268;2024-02-23T00:02:51;5.50;99.90
6788;DHT22;3431;47.966;10.268;2024-02-23T00:03:15;5.80;99.90
6788;DHT22;3431;47.966;10.268;2024-02-23T00:03:36;5.60;99.90
6788;DHT22;3431;47.966;10.268;2024-02-23T00:03:58;5.60;99.90
6788;DHT22;3431;47.966;10.268;2024-02-23T00:04:19;5.30;99.90
6788;DHT22;3431;47.966;10.268;2024-02-23T00:04:41;5.60;99.90
6788;DHT22;3431;47.966;10.268;2024-02-23T00:05:04;5.50;99.90
6788;DHT22;3431;47.966;10.268;2024-02-23T00:05:25;5.50;99.90
6788;DHT22;3431;47.966;10.268;2024-02-23T00:05:47;5.70;99.90
6788;DHT22;3431;47.966;10.268;2024-02-23T00:06:08;5.30;99.90
6788;DHT22;3431;47.966;10.268;2024-02-23T00:06:31;6.00;99.90
6788;DHT22;3431;47.966;10.268;2024-02-23T00:06:54;5.70;99.90
6788;DHT22;3431;47.966;10.268;2024-02-23T00:07:15;5.50;99.90
6788;DHT22;3431;47.966;10.268;2024-02-23T00:07:37;6.10;99.90
6788;DHT22;3431;47.966;10.268;2024-02-23T00:07:58;5.40;99.90
6788;DHT22;3431;47.966;10.268;2024-02-23T00:08:20;5.50;99.90
6788;DHT22;3431;47.966;10.268;2024-02-23T00:08:41;5.50;99.90
6788;DHT22;3431;47.966;10.268;2024-02-23T00:09:04;5.70;99.90
6788;DHT22;3431;47.966;10.268;2024-02-23T00:09:25;5.50;99.90
6788;DHT22;3431;47.966;10.268;2024-02-23T00:09:48;5.20;99.90
6788;DHT22;3431;47.966;10.268;2024-02-23T00:10:09;5.50;99.90
6788;DHT22;3431;47.966;10.268;2024-02-23T00:10:31;5.90;99.90
6788;DHT22;3431;47.966;10.268;2024-02-23T00:10:52;6.50;99.90
6788;DHT22;3431;47.966;10.268;2024-02-23T00:11:15;5.40;99.90
6788;DHT22;3431;47.966;10.268;2024-02-23T00:11:39;5.50;99.90
6788;DHT22;3431;47.966;10.268;2024-02-23T00:12:02;5.90;99.90
6788;DHT22;3431;47.966;10.268;2024-02-23T00:12:24;5.50;99.90
6788;DHT22;3431;47.966;10.268;2024-02-23T00:12:45;5.50;99.90
6788;DHT22;3431;47.966;10.268;2024-02-23T00:13:08;5.90;99.90
6788;DHT22;3431;47.966;10.268;2024-02-23T00:13:30;5.50;99.90
6788;DHT22;3431;47.966;10.268;2024-02-23T00:13:52;5.70;99.90
6788;DHT22;3431;47.966;10.268;2024-02-23T00:14:15;5.70;99.90
6788;DHT22;3431;47.966;10.268;2024-02-23T00:14:39;5.40;99.90
6788;DHT22;3431;47.966;10.268;2024-02-23T00:15:02;5.70;99.90
6788;DHT22;3431;47.966;10.268;2024-02-23T00:15:24;5.30;99.90
6788;DHT22;3431;47.966;10.268;2024-02-23T00:15:46;5.30;99.90
6788;DHT22;3431;47.966;10.268;2024-02-23T00:16:08;5.30;99.90
6788;DHT22;3431;47.966;10.268;2024-02-23T00:16:29;5.50;99.90
6788;DHT22;3431;47.966;10.268;2024-02-23T00:16:51;4.90;99.90
6788;DHT22;3431;47.966;10.268;2024-02-23T00:17:13;5.70;99.90
6788;DHT22;3431;47.966;10.268;2024-02-23T00:17:35;6.00;99.90
6788;DHT22;3431;47.966;10.268;2024-02-23T00:17:57;5.40;99.90
6788;DHT22;3431;47.966;10.268;2024-02-23T00:18:18;5.80;99.90
6788;DHT22;3431;47.966;10.268;2024-02-23T00:18:40;5.70;99.90
6788;DHT22;3431;47.966;10.268;2024-02-23T00:19:02;5.40;99.90
6788;DHT22;3431;47.966;10.268;2024-02-23T00:19:24;5.40;99.90
6788;DHT22;3431;47.966;10.268;2024-02-23T00:19:46;5.40;99.90
6788;DHT22;3431;47.966;10.268;2024-02-23T00:20:09;5.50;99.90
6788;DHT22;3431;47.966;10.268;2024-02-23T00:20:53;5.40;99.90
6788;DHT22;3431;47.966;10.268;2024-02-23T00:21:17;5.10;99.90
6788;DHT22;3431;47.966;10.268;2024-02-23T00:21:40;5.50;99.90
6788;DHT22;3431;47.966;10.268;2024-02-23T00:22:03;5.40;99.90
6788;DHT22;3431;47.966;10.268;2024-02-23T00:22:25;5.30;99.90
6788;DHT22;3431;47.966;10.268;2024-02-23T00:22:47;5.20;99.90
6788;DHT22;3431;47.966;10.268;2024-02-23T00:23:09;5.30;99.90
6788;DHT22;3431;47.966;10.268;2024-02-23T00:23:31;5.40;99.90
6788;DHT22;3431;47.966;10.268;2024-02-23T00:23:52;5.30;99.90
6788;DHT22;3431;47.966;10.268;2024-02-23T00:24:14;5.20;99.90
6788;DHT22;3431;47.966;10.268;2024-02-23T00:24:37;5.90;99.90
6788;DHT22;3431;47.966;10.268;2024-02-23T00:25:00;5.00;99.90
6788;DHT22;3431;47.966;10.268;2024-02-23T00:25:21;5.20;99.90
6788;DHT22;3431;47.966;10.268;2024-02-23T00:25:44;5.20;99.90
6788;DHT22;3431;47.966;10.268;2024-02-23T00:26:05;5.10;99.90
6788;DHT22;3431;47.966;10.268;2024-02-23T00:26:27;5.20;99.90
6788;DHT22;3431;47.966;10.268;2024-02-23T00:26:49;5.10;99.90
6788;DHT22;3431;47.966;10.268;2024-02-23T00:27:12;5.20;99.90
6788;DHT22;3431;47.966;10.268;2024-02-23T00:27:34;5.80;99.90
6788;DHT22;3431;47.966;10.268;2024-02-23T00:27:55;5.00;99.90
6788;DHT22;3431;47.966;10.268;2024-02-23T00:28:17;5.20;99.90
6788;DHT22;3431;47.966;10.268;2024-02-23T00:28:38;5.30;99.90
6788;DHT22;3431;47.966;10.268;2024-02-23T00:29:02;5.10;99.90
6788;DHT22;3431;47.966;10.268;2024-02-23T00:29:24;5.30;99.90
6788;DHT22;3431;47.966;10.268;2024-02-23T00:29:46;5.10;99.90
6788;DHT22;3431;47.966;10.268;2024-02-23T00:30:08;4.60;99.90
6788;DHT22;3431;47.966;10.268;2024-02-23T00:30:30;5.00;99.90
6788;DHT22;3431;47.966;10.268;2024-02-23T00:30:51;4.70;99.90
6788;DHT22;3431;47.966;10.268;2024-02-23T00:31:14;5.10;99.90
6788;DHT22;3431;47.966;10.268;2024-02-23T00:31:37;5.00;99.90
6788;DHT22;3431;47.966;10.268;2024-02-23T00:31:59;5.40;99.90
6788;DHT22;3431;47.966;10.268;2024-02-23T00:32:21;5.40;99.90
6788;DHT22;3431;47.966;10.268;2024-02-23T00:32:42;4.70;99.90
6788;DHT22;3431;47.966;10.268;2024-02-23T00:33:04;5.00;99.90
6788;DHT22;3431;47.966;10.268;2024-02-23T00:33:26;5.00;99.90
6788;DHT22;3431;47.966;10.268;2024-02-23T00:33:47;5.10;99.90
6788;DHT22;3431;47.966;10.268;2024-02-23T00:34:10;5.00;99.90
6788;DHT22;3431;47.966;10.268;2024-02-23T00:34:31;5.00;99.90
6788;DHT22;3431;47.966;10.268;2024-02-23T00:34:53;5.30;99.90
6788;DHT22;3431;47.966;10.268;2024-02-23T00:35:15;4.90;99.90
6788;DHT22;3431;47.966;10.268;2024-02-23T00:35:36;4.90;99.90
6788;DHT22;3431;47.966;10.268;2024-02-23T00:35:58;4.90;99.90
6788;DHT22;3431;47.966;10.268;2024-02-23T00:36:20;5.60;99.90
6788;DHT22;3431;47.966;10.268;2024-02-23T00:36:43;4.80;99.90
6788;DHT22;3431;47.966;10.268;2024-02-23T00:37:05;5.00;99.90
6788;DHT22;3431;47.966;10.268;2024-02-23T00:37:29;4.80;99.90
6788;DHT22;3431;47.966;10.268;2024-02-23T00:37:56;5.00;99.90
6788;DHT22;3431;47.966;10.268;2024-02-23T00:38:17;5.30;99.90
6788;DHT22;3431;47.966;10.268;2024-02-23T00:38:39;4.90;99.90
6788;DHT22;3431;47.966;10.268;2024-02-23T00:39:00;4.80;99.90
6788;DHT22;3431;47.966;10.268;2024-02-23T00:39:22;5.00;99.90
6788;DHT22;3431;47.966;10.268;2024-02-23T00:39:45;4.90;99.90
6788;DHT22;3431;47.966;10.268;2024-02-23T00:40:07;4.80;99.90
6788;DHT22;3431;47.966;10.268;2024-02-23T00:40:30;4.90;99.90
6788;DHT22;3431;47.966;10.268;2024-02-23T00:40:51;4.70;99.90
6788;DHT22;3431;47.966;10.268;2024-02-23T00:41:13;4.80;99.90
6788;DHT22;3431;47.966;10.268;2024-02-23T00:41:36;4.30;99.90
6788;DHT22;3431;47.966;10.268;2024-02-23T00:41:57;4.70;99.90
6788;DHT22;3431;47.966;10.268;2024-02-23T00:42:19;5.00;99.90
6788;DHT22;3431;47.966;10.268;2024-02-23T00:42:42;4.70;99.90
6788;DHT22;3431;47.966;10.268;2024-02-23T00:43:03;4.60;99.90
6788;DHT22;3431;47.966;10.268;2024-02-23T00:43:25;4.60;99.90
6788;DHT22;3431;47.966;10.268;2024-02-23T00:43:50;4.90;99.90
6788;DHT22;3431;47.966;10.268;2024-02-23T00:44:12;4.60;99.90
6788;DHT22;3431;47.966;10.268;2024-02-23T00:44:33;4.70;99.90
6788;DHT22;3431;47.966;10.268;2024-02-23T00:44:55;4.30;99.90
6788;DHT22;3431;47.966;10.268;2024-02-23T00:45:16;4.60;99.90
6788;DHT22;3431;47.966;10.268;2024-02-23T00:45:39;5.10;99.90
6788;DHT22;3431;47.966;10.268;2024-02-23T00:46:00;4.80;99.90
6788;DHT22;3431;47.966;10.268;2024-02-23T00:46:22;4.50;99.90
6788;DHT22;3431;47.966;10.268;2024-02-23T00:46:43;4.60;99.90
6788;DHT22;3431;47.966;10.268;2024-02-23T00:47:05;4.10;99.90
6788;DHT22;3431;47.966;10.268;2024-02-23T00:47:28;4.60;99.90
6788;DHT22;3431;47.966;10.268;2024-02-23T00:47:49;4.40;99.90
6788;DHT22;3431;47.966;10.268;2024-02-23T00:48:11;4.60;99.90
6788;DHT22;3431;47.966;10.268;2024-02-23T00:48:35;5.30;99.90
6788;DHT22;3431;47.966;10.268;2024-02-23T00:48:56;4.60;99.90
6788;DHT22;3431;47.966;10.268;2024-02-23T00:49:19;5.10;99.90
6788;DHT22;3431;47.966;10.268;2024-02-23T00:49:40;4.50;99.90
6788;DHT22;3431;47.966;10.268;2024-02-23T00:50:02;4.50;99.90
6788;DHT22;3431;47.966;10.268;2024-02-23T00:50:23;4.60;99.90
6788;DHT22;3431;47.966;10.268;2024-02-23T00:50:47;4.40;99.90
6788;DHT22;3431;47.966;10.268;2024-02-23T00:51:09;4.60;99.90
6788;DHT22;3431;47.966;10.268;2024-02-23T00:51:31;5.30;99.90
6788;DHT22;3431;47.966;10.268;2024-02-23T00:51:54;4.00;99.90
6788;DHT22;3431;47.966;10.268;2024-02-23T00:52:16;4.60;99.90
6788;DHT22;3431;47.966;10.268;2024-02-23T00:52:38;4.70;99.90
6788;DHT22;3431;47.966;10.268;2024-02-23T00:53:02;4.50;99.90
6788;DHT22;3431;47.966;10.268;2024-02-23T00:53:23;4.60;99.90
6788;DHT22;3431;47.966;10.268;2024-02-23T00:53:45;4.60;99.90
6788;DHT22;3431;47.966;10.268;2024-02-23T00:54:06;4.90;99.90
6788;DHT22;3431;47.966;10.268;2024-02-23T00:54:29;4.50;99.90
6788;DHT22;3431;47.966;10.268;2024-02-23T00:54:51;4.80;99.90
6788;DHT22;3431;47.966;10.268;2024-02-23T00:55:13;4.60;99.90
6788;DHT22;3431;47.966;10.268;2024-02-23T00:55:34;4.30;99.90
6788;DHT22;3431;47.966;10.268;2024-02-23T00:55:56;4.50;99.90
6788;DHT22;3431;47.966;10.268;2024-02-23T00:56:17;4.60;99.90
6788;DHT22;3431;47.966;10.268;2024-02-23T00:56:40;5.00;99.90
6788;DHT22;3431;47.966;10.268;2024-02-23T00:57:01;4.50;99.90
6788;DHT22;3431;47.966;10.268;2024-02-23T00:57:23;4.60;99.90
6788;DHT22;3431;47.966;10.268;2024-02-23T00:57:48;4.00;99.90
6788;DHT22;3431;47.966;10.268;2024-02-23T00:58:10;4.40;99.90
6788;DHT22;3431;47.966;10.268;2024-02-23T00:58:32;4.60;99.90
6788;DHT22;3431;47.966;10.268;2024-02-23T00:58:54;4.50;99.90
6788;DHT22;3431;47.966;10.268;2024-02-23T00:59:15;5.00;99.90
6788;DHT22;3431;47.966;10.268;2024-02-23T00:59:37;4.60;99.90
6788;DHT22;3431;47.966;10.268;2024-02-23T00:59:58;4.50;99.90
6788;DHT22;3431;47.966;10.268;2024-02-23T01:00:20;4.40;99.90
6788;DHT22;3431;47.966;10.268;2024-02-23T01:00:43;4.60;99.90
6788;DHT22;3431;47.966;10.268;2024-02-23T01:01:05;4.70;99.90
6788;DHT22;3431;47.966;10.268;2024-02-23T01:01:26;4.50;99.90
6788;DHT22;3431;47.966;10.268;2024-02-23T01:01:49;4.50;99.90
6788;DHT22;3431;47.966;10.268;2024-02-23T01:02:11;4.60;99.90
6788;DHT22;3431;47.966;10.268;2024-02-23T01:02:33;4.20;99.90
6788;DHT22;3431;47.966;10.268;2024-02-23T01:02:55;4.50;99.90
6788;DHT22;3431;47.966;10.268;2024-02-23T01:03:16;4.50;99.90
6788;DHT22;3431;47.966;10.268;2024-02-23T01:03:38;4.60;99.90
6788;DHT22;3431;47.966;10.268;2024-02-23T01:03:59;4.40;99.90
6788;DHT22;3431;47.966;10.268;2024-02-23T01:04:21;4.70;99.90
6788;DHT22;3431;47.966;10.268;2024-02-23T01:04:43;4.80;99.90
6788;DHT22;3431;47.966;10.268;2024-02-23T01:05:05;4.50;99.90
6788;DHT22;3431;47.966;10.268;2024-02-23T01:05:27;4.50;99.90
6788;DHT22;3431;47.966;10.268;2024-02-23T01:05:49;4.50;99.90
6788;DHT22;3431;47.966;10.268;2024-02-23T01:06:10;4.50;99.90
6788;DHT22;3431;47.966;10.268;2024-02-23T01:06:32;5.30;99.90
6788;DHT22;3431;47.966;10.268;2024-02-23T01:06:56;4.40;99.90
6788;DHT22;3431;47.966;10.268;2024-02-23T01:07:17;3.70;99.90
6788;DHT22;3431;47.966;10.268;2024-02-23T01:07:39;4.40;99.90
6788;DHT22;3431;47.966;10.268;2024-02-23T01:08:01;4.40;99.90
6788;DHT22;3431;47.966;10.268;2024-02-23T01:08:22;4.50;99.90
6788;DHT22;3431;47.966;10.268;2024-02-23T01:08:44;4.40;99.90
6788;DHT22;3431;47.966;10.268;2024-02-23T01:09:06;4.40;99.90
6788;DHT22;3431;47.966;10.268;2024-02-23T01:09:28;4.40;99.90
6788;DHT22;3431;47.966;10.268;2024-02-23T01:09:50;4.40;99.90
6788;DHT22;3431;47.966;10.268;2024-02-23T01:10:11;4.40;99.90
6788;DHT22;3431;47.966;10.268;2024-02-23T01:10:33;4.40;99.90
6788;DHT22;3431;47.966;10.268;2024-02-23T01:10:54;4.40;99.90
6788;DHT22;3431;47.966;10.268;2024-02-23T01:11:17;4.40;99.90
6788;DHT22;3431;47.966;10.268;2024-02-23T01:11:39;4.80;99.90
6788;DHT22;3431;47.966;10.268;2024-02-23T01:12:00;4.40;99.90
6788;DHT22;3431;47.966;10.268;2024-02-23T01:12:22;4.50;99.90
6788;DHT22;3431;47.966;10.268;2024-02-23T01:12:43;4.40;99.90
6788;DHT22;3431;47.966;10.268;2024-02-23T01:13:05;4.50;99.90
6788;DHT22;3431;47.966;10.268;2024-02-23T01:13:27;4.40;99.90
6788;DHT22;3431;47.966;10.268;2024-02-23T01:13:49;4.40;99.90
6788;DHT22;3431;47.966;10.268;2024-02-23T01:14:10;4.30;99.90
6788;DHT22;3431;47.966;10.268;2024-02-23T01:14:32;4.40;99.90
6788;DHT22;3431;47.966;10.268;2024-02-23T01:14:53;4.30;99.90
6788;DHT22;3431;47.966;10.268;2024-02-23T01:15:16;4.40;99.90
6788;DHT22;3431;47.966;10.268;2024-02-23T01:15:38;4.40;99.90
6788;DHT22;3431;47.966;10.268;2024-02-23T01:15:59;4.40;99.90
6788;DHT22;3431;47.966;10.268;2024-02-23T01:16:21;4.50;99.90
6788;DHT22;3431;47.966;10.268;2024-02-23T01:16:43;4.30;99.90
6788;DHT22;3431;47.966;10.268;2024-02-23T01:17:05;4.40;99.90
6788;DHT22;3431;47.966;10.268;2024-02-23T01:17:26;4.90;99.90
6788;DHT22;3431;47.966;10.268;2024-02-23T01:17:48;4.00;99.90
6788;DHT22;3431;47.966;10.268;2024-02-23T01:18:09;4.40;99.90
6788;DHT22;3431;47.966;10.268;2024-02-23T01:18:32;4.50;99.90
6788;DHT22;3431;47.966;10.268;2024-02-23T01:18:53;4.50;99.90
6788;DHT22;3431;47.966;10.268;2024-02-23T01:19:15;4.50;99.90
6788;DHT22;3431;47.966;10.268;2024-02-23T01:19:37;4.50;99.90
6788;DHT22;3431;47.966;10.268;2024-02-23T01:19:58;4.30;99.90
6788;DHT22;3431;47.966;10.268;2024-02-23T01:20:21;4.90;99.90
6788;DHT22;3431;47.966;10.268;2024-02-23T01:20:43;4.50;99.90
6788;DHT22;3431;47.966;10.268;2024-02-23T01:21:05;4.40;99.90
6788;DHT22;3431;47.966;10.268;2024-02-23T01:21:26;4.40;99.90
6788;DHT22;3431;47.966;10.268;2024-02-23T01:21:48;4.80;99.90
6788;DHT22;3431;47.966;10.268;2024-02-23T01:22:19;5.20;99.90
6788;DHT22;3431;47.966;10.268;2024-02-23T01:22:40;4.50;99.90
6788;DHT22;3431;47.966;10.268;2024-02-23T01:23:02;4.50;99.90
6788;DHT22;3431;47.966;10.268;2024-02-23T01:23:23;4.40;99.90
6788;DHT22;3431;47.966;10.268;2024-02-23T01:23:45;4.30;99.90
6788;DHT22;3431;47.966;10.268;2024-02-23T01:24:06;4.40;99.90
6788;DHT22;3431;47.966;10.268;2024-02-23T01:24:29;4.40;99.90
6788;DHT22;3431;47.966;10.268;2024-02-23T01:24:50;4.50;99.90
6788;DHT22;3431;47.966;10.268;2024-02-23T01:25:12;4.00;99.90
6788;DHT22;3431;47.966;10.268;2024-02-23T01:25:34;4.40;99.90
6788;DHT22;3431;47.966;10.268;2024-02-23T01:25:56;4.50;99.90
6788;DHT22;3431;47.966;10.268;2024-02-23T01:26:20;4.60;99.90
6788;DHT22;3431;47.966;10.268;2024-02-23T01:26:41;4.50;99.90
6788;DHT22;3431;47.966;10.268;2024-02-23T01:27:03;4.50;99.90
6788;DHT22;3431;47.966;10.268;2024-02-23T01:27:24;4.20;99.90
6788;DHT22;3431;47.966;10.268;2024-02-23T01:27:46;4.50;99.90
6788;DHT22;3431;47.966;10.268;2024-02-23T01:28:09;4.30;99.90
6788;DHT22;3431;47.966;10.268;2024-02-23T01:28:30;4.40;99.90
6788;DHT22;3431;47.966;10.268;2024-02-23T01:28:52;4.70;99.90
6788;DHT22;3431;47.966;10.268;2024-02-23T01:29:14;4.80;99.90
6788;DHT22;3431;47.966;10.268;2024-02-23T01:29:37;4.50;99.90
6788;DHT22;3431;47.966;10.268;2024-02-23T01:30:00;4.50;99.90
6788;DHT22;3431;47.966;10.268;2024-02-23T01:30:22;4.40;99.90
6788;DHT22;3431;47.966;10.268;2024-02-23T01:30:43;4.50;99.90
6788;DHT22;3431;47.966;10.268;2024-02-23T01:31:07;4.60;99.90
6788;DHT22;3431;47.966;10.268;2024-02-23T01:31:31;4.50;99.90
6788;DHT22;3431;47.966;10.268;2024-02-23T01:31:54;4.60;99.90
6788;DHT22;3431;47.966;10.268;2024-02-23T01:32:16;4.40;99.90
6788;DHT22;3431;47.966;10.268;2024-02-23T01:32:37;4.20;99.90
6788;DHT22;3431;47.966;10.268;2024-02-23T01:33:00;4.60;99.90
6788;DHT22;3431;47.966;10.268;2024-02-23T01:33:21;4.50;99.90
6788;DHT22;3431;47.966;10.268;2024-02-23T01:33:43;4.50;99.90
6788;DHT22;3431;47.966;10.268;2024-02-23T01:34:05;4.60;99.90
6788;DHT22;3431;47.966;10.268;2024-02-23T01:34:27;4.60;99.90
6788;DHT22;3431;47.966;10.268;2024-02-23T01:34:48;4.50;99.90
6788;DHT22;3431;47.966;10.268;2024-02-23T01:35:10;4.60;99.90
6788;DHT22;3431;47.966;10.268;2024-02-23T01:35:32;4.10;99.90
6788;DHT22;3431;47.966;10.268;2024-02-23T01:35:53;4.50;99.90
6788;DHT22;3431;47.966;10.268;2024-02-23T01:36:17;4.50;99.90
6788;DHT22;3431;47.966;10.268;2024-02-23T01:36:39;5.00;99.90
6788;DHT22;3431;47.966;10.268;2024-02-23T01:37:00;4.40;99.90
6788;DHT22;3431;47.966;10.268;2024-02-23T01:37:23;4.60;99.90
6788;DHT22;3431;47.966;10.268;2024-02-23T01:37:45;4.50;99.90
6788;DHT22;3431;47.966;10.268;2024-02-23T01:38:06;4.40;99.90
6788;DHT22;3431;47.966;10.268;2024-02-23T01:38:29;4.80;99.90
6788;DHT22;3431;47.966;10.268;2024-02-23T01:38:53;4.50;99.90
6788;DHT22;3431;47.966;10.268;2024-02-23T01:39:16;4.30;99.90
6788;DHT22;3431;47.966;10.268;2024-02-23T01:39:37;3.90;99.90
6788;DHT22;3431;47.966;10.268;2024-02-23T01:40:00;4.60;99.90
6788;DHT22;3431;47.966;10.268;2024-02-23T01:40:21;4.10;99.90
6788;DHT22;3431;47.966;10.268;2024-02-23T01:40:43;4.50;99.90
6788;DHT22;3431;47.966;10.268;2024-02-23T01:41:04;4.50;99.90
6788;DHT22;3431;47.966;10.268;2024-02-23T01:41:27;5.00;99.90
6788;DHT22;3431;47.966;10.268;2024-02-23T01:41:49;4.50;99.90
6788;DHT22;3431;47.966;10.268;2024-02-23T01:42:11;4.50;99.90
6788;DHT22;3431;47.966;10.268;2024-02-23T01:42:33;4.40;99.90
6788;DHT22;3431;47.966;10.268;2024-02-23T01:43:01;4.50;99.90
6788;DHT22;3431;47.966;10.268;2024-02-23T01:43:24;4.50;99.90
6788;DHT22;3431;47.966;10.268;2024-02-23T01:43:46;4.50;99.90
6788;DHT22;3431;47.966;10.268;2024-02-23T01:44:08;4.50;99.90
6788;DHT22;3431;47.966;10.268;2024-02-23T01:44:29;4.50;99.90
6788;DHT22;3431;47.966;10.268;2024-02-23T01:44:51;4.50;99.90
6788;DHT22;3431;47.966;10.268;2024-02-23T01:45:12;4.80;99.90
6788;DHT22;3431;47.966;10.268;2024-02-23T01:45:35;4.10;99.90
6788;DHT22;3431;47.966;10.268;2024-02-23T01:45:56;4.50;99.90
6788;DHT22;3431;47.966;10.268;2024-02-23T01:46:18;4.50;99.90
6788;DHT22;3431;47.966;10.268;2024-02-23T01:46:40;4.50;99.90
6788;DHT22;3431;47.966;10.268;2024-02-23T01:47:02;4.50;99.90
6788;DHT22;3431;47.966;10.268;2024-02-23T01:47:25;4.40;99.90
6788;DHT22;3431;47.966;10.268;2024-02-23T01:47:46;4.70;99.90
6788;DHT22;3431;47.966;10.268;2024-02-23T01:48:08;4.50;99.90
6788;DHT22;3431;47.966;10.268;2024-02-23T01:48:31;4.50;99.90
6788;DHT22;3431;47.966;10.268;2024-02-23T01:48:53;4.50;99.90
6788;DHT22;3431;47.966;10.268;2024-02-23T01:49:15;4.50;99.90
6788;DHT22;3431;47.966;10.268;2024-02-23T01:49:37;5.00;99.90
6788;DHT22;3431;47.966;10.268;2024-02-23T01:50:01;4.50;99.90
6788;DHT22;3431;47.966;10.268;2024-02-23T01:50:48;4.40;99.90
6788;DHT22;3431;47.966;10.268;2024-02-23T01:51:09;4.50;99.90
6788;DHT22;3431;47.966;10.268;2024-02-23T01:51:33;4.40;99.90
6788;DHT22;3431;47.966;10.268;2024-02-23T01:51:56;4.60;99.90
6788;DHT22;3431;47.966;10.268;2024-02-23T01:52:18;4.80;99.90
6788;DHT22;3431;47.966;10.268;2024-02-23T01:52:42;4.50;99.90
6788;DHT22;3431;47.966;10.268;2024-02-23T01:53:04;4.50;99.90
6788;DHT22;3431;47.966;10.268;2024-02-23T01:53:27;4.40;99.90
6788;DHT22;3431;47.966;10.268;2024-02-23T01:53:49;5.00;99.90
6788;DHT22;3431;47.966;10.268;2024-02-23T01:54:10;5.00;99.90
6788;DHT22;3431;47.966;10.268;2024-02-23T01:54:33;4.00;99.90
6788;DHT22;3431;47.966;10.268;2024-02-23T01:54:56;4.50;99.90
6788;DHT22;3431;47.966;10.268;2024-02-23T01:55:19;4.40;99.90
6788;DHT22;3431;47.966;10.268;2024-02-23T01:55:41;4.20;99.90
6788;DHT22;3431;47.966;10.268;2024-02-23T01:56:04;4.50;99.90
6788;DHT22;3431;47.966;10.268;2024-02-23T01:56:26;4.50;99.90
6788;DHT22;3431;47.966;10.268;2024-02-23T01:56:48;4.50;99.90
6788;DHT22;3431;47.966;10.268;2024-02-23T01:57:11;4.40;99.90
6788;DHT22;3431;47.966;10.268;2024-02-23T01:57:33;4.50;99.90
6788;DHT22;3431;47.966;10.268;2024-02-23T01:57:56;4.50;99.90
6788;DHT22;3431;47.966;10.268;2024-02-23T01:58:17;4.50;99.90
6788;DHT22;3431;47.966;10.268;2024-02-23T01:58:39;5.50;99.90
6788;DHT22;3431;47.966;10.268;2024-02-23T01:59:02;4.50;99.90
6788;DHT22;3431;47.966;10.268;2024-02-23T01:59:26;4.50;99.90
6788;DHT22;3431;47.966;10.268;2024-02-23T01:59:49;4.50;99.90
6788;DHT22;3431;47.966;10.268;2024-02-23T02:00:16;4.80;99.90
6788;DHT22;3431;47.966;10.268;2024-02-23T02:00:44;4.50;99.90
6788;DHT22;3431;47.966;10.268;2024-02-23T02:01:07;4.50;99.90
6788;DHT22;3431;47.966;10.268;2024-02-23T02:01:29;4.50;99.90
6788;DHT22;3431;47.966;10.268;2024-02-23T02:01:51;4.60;99.90
6788;DHT22;3431;47.966;10.268;2024-02-23T02:02:13;4.50;99.90
6788;DHT22;3431;47.966;10.268;2024-02-23T02:02:34;4.50;99.90
6788;DHT22;3431;47.966;10.268;2024-02-23T02:02:56;4.40;99.90
6788;DHT22;3431;47.966;10.268;2024-02-23T02:03:19;4.50;99.90
6788;DHT22;3431;47.966;10.268;2024-02-23T02:03:41;4.10;99.90
6788;DHT22;3431;47.966;10.268;2024-02-23T02:04:03;4.50;99.90
6788;DHT22;3431;47.966;10.268;2024-02-23T02:04:24;4.50;99.90
6788;DHT22;3431;47.966;10.268;2024-02-23T02:04:46;4.50;99.90
6788;DHT22;3431;47.966;10.268;2024-02-23T02:05:08;4.40;99.90
6788;DHT22;3431;47.966;10.268;2024-02-23T02:05:30;4.60;99.90
6788;DHT22;3431;47.966;10.268;2024-02-23T02:05:52;4.20;99.90
6788;DHT22;3431;47.966;10.268;2024-02-23T02:06:14;4.80;99.90
6788;DHT22;3431;47.966;10.268;2024-02-23T02:06:36;4.30;99.90
6788;DHT22;3431;47.966;10.268;2024-02-23T02:06:59;4.90;99.90
6788;DHT22;3431;47.966;10.268;2024-02-23T02:07:22;4.50;99.90
6788;DHT22;3431;47.966;10.268;2024-02-23T02:07:49;4.40;99.90
6788;DHT22;3431;47.966;10.268;2024-02-23T02:08:15;4.60;99.90
6788;DHT22;3431;47.966;10.268;2024-02-23T02:08:37;5.20;99.90
6788;DHT22;3431;47.966;10.268;2024-02-23T02:08:59;4.50;99.90
6788;DHT22;3431;47.966;10.268;2024-02-23T02:09:22;4.50;99.90
6788;DHT22;3431;47.966;10.268;2024-02-23T02:09:43;4.80;99.90
6788;DHT22;3431;47.966;10.268;2024-02-23T02:10:08;4.90;99.90
6788;DHT22;3431;47.966;10.268;2024-02-23T02:10:29;4.60;99.90
6788;DHT22;3431;47.966;10.268;2024-02-23T02:10:51;4.20;99.90
6788;DHT22;3431;47.966;10.268;2024-02-23T02:11:14;4.50;99.90
6788;DHT22;3431;47.966;10.268;2024-02-23T02:11:45;4.50;99.90
6788;DHT22;3431;47.966;10.268;2024-02-23T02:12:06;4.50;99.90
6788;DHT22;3431;47.966;10.268;2024-02-23T02:12:28;4.70;99.90
6788;DHT22;3431;47.966;10.268;2024-02-23T02:12:50;4.50;99.90
6788;DHT22;3431;47.966;10.268;2024-02-23T02:13:12;4.50;99.90
6788;DHT22;3431;47.966;10.268;2024-02-23T02:13:34;4.50;99.90
6788;DHT22;3431;47.966;10.268;2024-02-23T02:13:56;4.50;99.90
6788;DHT22;3431;47.966;10.268;2024-02-23T02:14:18;4.60;99.90
6788;DHT22;3431;47.966;10.268;2024-02-23T02:14:39;4.00;99.90
6788;DHT22;3431;47.966;10.268;2024-02-23T02:15:01;4.60;99.90
6788;DHT22;3431;47.966;10.268;2024-02-23T02:15:23;5.20;99.90
6788;DHT22;3431;47.966;10.268;2024-02-23T02:15:46;4.60;99.90
6788;DHT22;3431;47.966;10.268;2024-02-23T02:16:07;4.60;99.90
6788;DHT22;3431;47.966;10.268;2024-02-23T02:16:29;4.60;99.90
6788;DHT22;3431;47.966;10.268;2024-02-23T02:16:51;4.40;99.90
6788;DHT22;3431;47.966;10.268;2024-02-23T02:17:12;4.60;99.90
6788;DHT22;3431;47.966;10.268;2024-02-23T02:17:35;4.60;99.90
6788;DHT22;3431;47.966;10.268;2024-02-23T02:17:56;4.80;99.90
6788;DHT22;3431;47.966;10.268;2024-02-23T02:18:18;4.40;99.90
6788;DHT22;3431;47.966;10.268;2024-02-23T02:18:40;4.60;99.90
6788;DHT22;3431;47.966;10.268;2024-02-23T02:19:01;4.40;99.90
6788;DHT22;3431;47.966;10.268;2024-02-23T02:19:24;4.60;99.90
6788;DHT22;3431;47.966;10.268;2024-02-23T02:19:46;4.60;99.90
6788;DHT22;3431;47.966;10.268;2024-02-23T02:20:12;4.60;99.90
6788;DHT22;3431;47.966;10.268;2024-02-23T02:20:36;4.60;99.90
6788;DHT22;3431;47.966;10.268;2024-02-23T02:20:58;4.60;99.90
6788;DHT22;3431;47.966;10.268;2024-02-23T02:21:20;4.60;99.90
6788;DHT22;3431;47.966;10.268;2024-02-23T02:21:46;4.60;99.90
6788;DHT22;3431;47.966;10.268;2024-02-23T02:22:07;3.80;99.90
6788;DHT22;3431;47.966;10.268;2024-02-23T02:22:29;4.90;99.90
6788;DHT22;3431;47.966;10.268;2024-02-23T02:22:52;5.30;99.90
6788;DHT22;3431;47.966;10.268;2024-02-23T02:23:13;4.60;99.90
6788;DHT22;3431;47.966;10.268;2024-02-23T02:23:36;4.80;99.90
6788;DHT22;3431;47.966;10.268;2024-02-23T02:23:58;4.60;99.90
6788;DHT22;3431;47.966;10.268;2024-02-23T02:24:20;4.60;99.90
6788;DHT22;3431;47.966;10.268;2024-02-23T02:24:42;4.60;99.90
6788;DHT22;3431;47.966;10.268;2024-02-23T02:25:05;4.50;99.90
6788;DHT22;3431;47.966;10.268;2024-02-23T02:25:27;4.60;99.90
6788;DHT22;3431;47.966;10.268;2024-02-23T02:25:52;4.60;99.90
6788;DHT22;3431;47.966;10.268;2024-02-23T02:26:14;4.00;99.90